sensor_id;sensor_type;location;lat;lon;timestamp;P1;durP1;ratioP1;P2;durP2;ratioP2
23990;SDS011;12205;50.600;4.608;2023-06-22T00:02:25;10.30;;;2.80;;
23990;SDS011;12205;50.600;4.608;2023-06-22T00:04:52;7.75;;;2.55;;
23990;SDS011;12205;50.600;4.608;2023-06-22T00:07:19;8.13;;;2.35;;
23990;SDS011;12205;50.600;4.608;2023-06-22T00:09:47;7.75;;;2.55;;
23990;SDS011;12205;50.600;4.608;2023-06-22T00:12:14;9.48;;;2.83;;
23990;SDS011;12205;50.600;4.608;2023-06-22T00:14:42;8.63;;;2.50;;
23990;SDS011;12205;50.600;4.608;2023-06-22T00:17:09;6.30;;;2.40;;
23990;SDS011;12205;50.600;4.608;2023-06-22T00:19:36;9.07;;;2.70;;
23990;SDS011;12205;50.600;4.608;2023-06-22T00:22:05;7.93;;;2.65;;
23990;SDS011;12205;50.600;4.608;2023-06-22T00:24:32;6.85;;;2.20;;
23990;SDS011;12205;50.600;4.608;2023-06-22T00:27:01;7.75;;;2.60;;
23990;SDS011;12205;50.600;4.608;2023-06-22T00:29:30;6.47;;;2.42;;
23990;SDS011;12205;50.600;4.608;2023-06-22T00:31:57;9.32;;;2.47;;
23990;SDS011;12205;50.600;4.608;2023-06-22T00:34:24;7.90;;;2.47;;
23990;SDS011;12205;50.600;4.608;2023-06-22T00:36:52;6.65;;;2.30;;
23990;SDS011;12205;50.600;4.608;2023-06-22T00:39:19;10.30;;;2.50;;
23990;SDS011;12205;50.600;4.608;2023-06-22T00:41:46;6.03;;;2.30;;
23990;SDS011;12205;50.600;4.608;2023-06-22T00:44:14;6.78;;;2.33;;
23990;SDS011;12205;50.600;4.608;2023-06-22T00:46:41;5.53;;;2.17;;
23990;SDS011;12205;50.600;4.608;2023-06-22T00:49:08;10.73;;;2.42;;
23990;SDS011;12205;50.600;4.608;2023-06-22T00:51:36;9.85;;;2.33;;
23990;SDS011;12205;50.600;4.608;2023-06-22T00:54:10;7.30;;;2.13;;
23990;SDS011;12205;50.600;4.608;2023-06-22T00:56:39;5.13;;;2.30;;
23990;SDS011;12205;50.600;4.608;2023-06-22T00:59:07;7.95;;;2.15;;
23990;SDS011;12205;50.600;4.608;2023-06-22T01:01:38;7.93;;;2.63;;
23990;SDS011;12205;50.600;4.608;2023-06-22T01:04:07;7.18;;;2.47;;
23990;SDS011;12205;50.600;4.608;2023-06-22T01:06:38;4.80;;;2.22;;
23990;SDS011;12205;50.600;4.608;2023-06-22T01:09:15;10.23;;;2.50;;
23990;SDS011;12205;50.600;4.608;2023-06-22T01:11:49;6.50;;;2.42;;
23990;SDS011;12205;50.600;4.608;2023-06-22T01:14:23;5.57;;;2.35;;
23990;SDS011;12205;50.600;4.608;2023-06-22T01:16:59;8.07;;;2.30;;
23990;SDS011;12205;50.600;4.608;2023-06-22T01:19:31;6.45;;;2.30;;
23990;SDS011;12205;50.600;4.608;2023-06-22T01:22:08;4.78;;;2.08;;
23990;SDS011;12205;50.600;4.608;2023-06-22T01:24:41;6.90;;;2.33;;
23990;SDS011;12205;50.600;4.608;2023-06-22T01:27:31;8.30;;;2.40;;
23990;SDS011;12205;50.600;4.608;2023-06-22T01:30:09;7.43;;;2.22;;
23990;SDS011;12205;50.600;4.608;2023-06-22T01:32:38;6.15;;;2.03;;
23990;SDS011;12205;50.600;4.608;2023-06-22T01:35:07;6.25;;;1.90;;
23990;SDS011;12205;50.600;4.608;2023-06-22T01:37:36;5.13;;;1.95;;
23990;SDS011;12205;50.600;4.608;2023-06-22T01:40:05;5.47;;;1.98;;
23990;SDS011;12205;50.600;4.608;2023-06-22T01:42:35;5.10;;;2.03;;
23990;SDS011;12205;50.600;4.608;2023-06-22T01:47:36;6.82;;;2.03;;
23990;SDS011;12205;50.600;4.608;2023-06-22T01:50:05;8.02;;;1.85;;
23990;SDS011;12205;50.600;4.608;2023-06-22T01:52:33;6.45;;;1.90;;
23990;SDS011;12205;50.600;4.608;2023-06-22T01:55:00;6.13;;;2.15;;
23990;SDS011;12205;50.600;4.608;2023-06-22T01:57:29;9.15;;;2.20;;
23990;SDS011;12205;50.600;4.608;2023-06-22T01:59:59;4.07;;;1.73;;
23990;SDS011;12205;50.600;4.608;2023-06-22T02:02:43;5.15;;;1.85;;
23990;SDS011;12205;50.600;4.608;2023-06-22T02:05:18;4.93;;;2.03;;
23990;SDS011;12205;50.600;4.608;2023-06-22T02:07:52;6.40;;;1.80;;
23990;SDS011;12205;50.600;4.608;2023-06-22T02:10:29;6.43;;;2.10;;
23990;SDS011;12205;50.600;4.608;2023-06-22T02:12:58;6.30;;;2.13;;
23990;SDS011;12205;50.600;4.608;2023-06-22T02:15:27;4.68;;;2.10;;
23990;SDS011;12205;50.600;4.608;2023-06-22T02:17:56;4.05;;;1.55;;
23990;SDS011;12205;50.600;4.608;2023-06-22T02:20:23;5.65;;;1.85;;
23990;SDS011;12205;50.600;4.608;2023-06-22T02:22:50;5.35;;;1.80;;
23990;SDS011;12205;50.600;4.608;2023-06-22T02:25:18;7.45;;;1.95;;
23990;SDS011;12205;50.600;4.608;2023-06-22T02:27:46;6.47;;;2.10;;
23990;SDS011;12205;50.600;4.608;2023-06-22T02:30:16;6.15;;;2.15;;
23990;SDS011;12205;50.600;4.608;2023-06-22T02:32:43;5.75;;;1.60;;
23990;SDS011;12205;50.600;4.608;2023-06-22T02:35:12;4.22;;;1.70;;
23990;SDS011;12205;50.600;4.608;2023-06-22T02:37:40;5.28;;;2.03;;
23990;SDS011;12205;50.600;4.608;2023-06-22T02:40:08;5.00;;;1.55;;
23990;SDS011;12205;50.600;4.608;2023-06-22T02:42:35;9.20;;;1.90;;
23990;SDS011;12205;50.600;4.608;2023-06-22T02:45:03;4.05;;;1.70;;
23990;SDS011;12205;50.600;4.608;2023-06-22T02:47:31;5.38;;;1.88;;
23990;SDS011;12205;50.600;4.608;2023-06-22T02:49:59;6.53;;;2.20;;
23990;SDS011;12205;50.600;4.608;2023-06-22T02:52:31;5.95;;;1.80;;
23990;SDS011;12205;50.600;4.608;2023-06-22T02:54:59;7.35;;;1.63;;
23990;SDS011;12205;50.600;4.608;2023-06-22T02:57:27;6.97;;;1.83;;
23990;SDS011;12205;50.600;4.608;2023-06-22T02:59:54;6.38;;;1.88;;
23990;SDS011;12205;50.600;4.608;2023-06-22T03:02:21;4.15;;;1.40;;
23990;SDS011;12205;50.600;4.608;2023-06-22T03:04:48;3.83;;;1.48;;
23990;SDS011;12205;50.600;4.608;2023-06-22T03:07:18;5.95;;;1.77;;
23990;SDS011;12205;50.600;4.608;2023-06-22T03:09:49;3.13;;;1.40;;
23990;SDS011;12205;50.600;4.608;2023-06-22T03:12:16;4.65;;;1.73;;
23990;SDS011;12205;50.600;4.608;2023-06-22T03:14:54;5.82;;;1.98;;
23990;SDS011;12205;50.600;4.608;2023-06-22T03:17:21;7.65;;;1.58;;
23990;SDS011;12205;50.600;4.608;2023-06-22T03:19:48;4.80;;;1.63;;
23990;SDS011;12205;50.600;4.608;2023-06-22T03:22:15;4.22;;;1.58;;
23990;SDS011;12205;50.600;4.608;2023-06-22T03:24:42;3.97;;;1.40;;
23990;SDS011;12205;50.600;4.608;2023-06-22T03:27:11;7.25;;;2.03;;
23990;SDS011;12205;50.600;4.608;2023-06-22T03:29:39;7.47;;;2.00;;
23990;SDS011;12205;50.600;4.608;2023-06-22T03:32:06;7.00;;;1.83;;
23990;SDS011;12205;50.600;4.608;2023-06-22T03:34:33;6.70;;;1.92;;
23990;SDS011;12205;50.600;4.608;2023-06-22T03:37:02;5.38;;;1.80;;
23990;SDS011;12205;50.600;4.608;2023-06-22T03:39:31;3.97;;;1.17;;
23990;SDS011;12205;50.600;4.608;2023-06-22T03:41:58;5.15;;;1.85;;
23990;SDS011;12205;50.600;4.608;2023-06-22T03:44:27;5.15;;;1.40;;
23990;SDS011;12205;50.600;4.608;2023-06-22T03:46:54;5.90;;;2.08;;
23990;SDS011;12205;50.600;4.608;2023-06-22T03:49:21;5.25;;;1.67;;
23990;SDS011;12205;50.600;4.608;2023-06-22T03:51:48;5.80;;;1.75;;
23990;SDS011;12205;50.600;4.608;2023-06-22T03:54:15;5.70;;;1.85;;
23990;SDS011;12205;50.600;4.608;2023-06-22T03:56:42;5.82;;;1.60;;
23990;SDS011;12205;50.600;4.608;2023-06-22T03:59:09;5.93;;;1.77;;
23990;SDS011;12205;50.600;4.608;2023-06-22T04:01:37;4.40;;;1.40;;
23990;SDS011;12205;50.600;4.608;2023-06-22T04:04:05;4.80;;;1.50;;
23990;SDS011;12205;50.600;4.608;2023-06-22T04:06:32;7.07;;;1.67;;
23990;SDS011;12205;50.600;4.608;2023-06-22T04:09:00;7.03;;;1.77;;
23990;SDS011;12205;50.600;4.608;2023-06-22T04:11:27;6.15;;;1.48;;
23990;SDS011;12205;50.600;4.608;2023-06-22T04:13:54;4.32;;;1.40;;
23990;SDS011;12205;50.600;4.608;2023-06-22T04:16:21;4.35;;;1.52;;
23990;SDS011;12205;50.600;4.608;2023-06-22T04:18:50;4.63;;;1.50;;
23990;SDS011;12205;50.600;4.608;2023-06-22T04:21:17;4.97;;;1.80;;
23990;SDS011;12205;50.600;4.608;2023-06-22T04:23:44;5.00;;;1.40;;
23990;SDS011;12205;50.600;4.608;2023-06-22T04:26:12;4.13;;;1.30;;
23990;SDS011;12205;50.600;4.608;2023-06-22T04:28:40;5.65;;;1.70;;
23990;SDS011;12205;50.600;4.608;2023-06-22T04:31:07;6.15;;;1.50;;
23990;SDS011;12205;50.600;4.608;2023-06-22T04:33:34;2.97;;;1.30;;
23990;SDS011;12205;50.600;4.608;2023-06-22T04:36:03;5.60;;;1.60;;
23990;SDS011;12205;50.600;4.608;2023-06-22T04:38:30;5.88;;;1.95;;
23990;SDS011;12205;50.600;4.608;2023-06-22T04:40:58;5.88;;;1.50;;
23990;SDS011;12205;50.600;4.608;2023-06-22T04:43:27;5.80;;;1.30;;
23990;SDS011;12205;50.600;4.608;2023-06-22T04:45:55;4.03;;;1.45;;
23990;SDS011;12205;50.600;4.608;2023-06-22T04:48:28;4.70;;;1.60;;
23990;SDS011;12205;50.600;4.608;2023-06-22T04:50:57;4.70;;;1.23;;
23990;SDS011;12205;50.600;4.608;2023-06-22T04:53:29;4.33;;;1.50;;
23990;SDS011;12205;50.600;4.608;2023-06-22T04:55:56;5.90;;;1.77;;
23990;SDS011;12205;50.600;4.608;2023-06-22T04:58:23;4.18;;;1.30;;
23990;SDS011;12205;50.600;4.608;2023-06-22T05:00:52;6.40;;;1.60;;
23990;SDS011;12205;50.600;4.608;2023-06-22T05:03:22;7.47;;;1.80;;
23990;SDS011;12205;50.600;4.608;2023-06-22T05:05:51;6.55;;;1.70;;
23990;SDS011;12205;50.600;4.608;2023-06-22T05:08:19;4.88;;;1.80;;
23990;SDS011;12205;50.600;4.608;2023-06-22T05:10:47;6.82;;;1.77;;
23990;SDS011;12205;50.600;4.608;2023-06-22T05:13:14;5.15;;;1.55;;
23990;SDS011;12205;50.600;4.608;2023-06-22T05:15:41;7.35;;;1.98;;
23990;SDS011;12205;50.600;4.608;2023-06-22T05:18:09;5.80;;;1.80;;
23990;SDS011;12205;50.600;4.608;2023-06-22T05:20:36;11.00;;;2.00;;
23990;SDS011;12205;50.600;4.608;2023-06-22T05:23:04;8.45;;;2.10;;
23990;SDS011;12205;50.600;4.608;2023-06-22T05:25:31;5.70;;;2.13;;
23990;SDS011;12205;50.600;4.608;2023-06-22T05:28:00;8.98;;;1.90;;
23990;SDS011;12205;50.600;4.608;2023-06-22T05:30:30;8.00;;;2.35;;
23990;SDS011;12205;50.600;4.608;2023-06-22T05:32:58;8.02;;;2.03;;
23990;SDS011;12205;50.600;4.608;2023-06-22T05:35:25;10.30;;;2.17;;
23990;SDS011;12205;50.600;4.608;2023-06-22T05:37:52;10.68;;;2.30;;
23990;SDS011;12205;50.600;4.608;2023-06-22T05:40:19;15.70;;;2.50;;
23990;SDS011;12205;50.600;4.608;2023-06-22T05:42:46;8.30;;;2.30;;
23990;SDS011;12205;50.600;4.608;2023-06-22T05:45:14;9.75;;;2.30;;
23990;SDS011;12205;50.600;4.608;2023-06-22T05:47:41;10.35;;;2.40;;
23990;SDS011;12205;50.600;4.608;2023-06-22T05:50:09;5.95;;;2.20;;
23990;SDS011;12205;50.600;4.608;2023-06-22T05:52:36;12.30;;;2.65;;
23990;SDS011;12205;50.600;4.608;2023-06-22T05:55:03;7.65;;;2.70;;
23990;SDS011;12205;50.600;4.608;2023-06-22T05:57:31;8.05;;;2.35;;
23990;SDS011;12205;50.600;4.608;2023-06-22T05:59:58;11.02;;;2.95;;
23990;SDS011;12205;50.600;4.608;2023-06-22T06:02:27;10.65;;;2.70;;
23990;SDS011;12205;50.600;4.608;2023-06-22T06:04:54;9.15;;;2.58;;
23990;SDS011;12205;50.600;4.608;2023-06-22T06:07:21;12.60;;;3.05;;
23990;SDS011;12205;50.600;4.608;2023-06-22T06:09:48;11.15;;;3.10;;
23990;SDS011;12205;50.600;4.608;2023-06-22T06:12:15;9.50;;;3.30;;
23990;SDS011;12205;50.600;4.608;2023-06-22T06:14:42;8.85;;;3.38;;
23990;SDS011;12205;50.600;4.608;2023-06-22T06:17:09;11.73;;;3.97;;
23990;SDS011;12205;50.600;4.608;2023-06-22T06:19:38;10.15;;;2.70;;
23990;SDS011;12205;50.600;4.608;2023-06-22T06:22:05;10.23;;;3.22;;
23990;SDS011;12205;50.600;4.608;2023-06-22T06:24:32;11.13;;;3.78;;
23990;SDS011;12205;50.600;4.608;2023-06-22T06:26:59;9.45;;;3.63;;
23990;SDS011;12205;50.600;4.608;2023-06-22T06:29:29;12.80;;;3.80;;
23990;SDS011;12205;50.600;4.608;2023-06-22T06:31:57;8.00;;;3.25;;
23990;SDS011;12205;50.600;4.608;2023-06-22T06:34:24;14.95;;;3.60;;
23990;SDS011;12205;50.600;4.608;2023-06-22T06:36:53;8.85;;;3.33;;
23990;SDS011;12205;50.600;4.608;2023-06-22T06:39:20;12.30;;;3.67;;
23990;SDS011;12205;50.600;4.608;2023-06-22T06:41:47;9.68;;;3.50;;
23990;SDS011;12205;50.600;4.608;2023-06-22T06:44:14;10.60;;;3.80;;
23990;SDS011;12205;50.600;4.608;2023-06-22T06:46:41;12.23;;;4.13;;
23990;SDS011;12205;50.600;4.608;2023-06-22T06:49:09;14.38;;;4.28;;
23990;SDS011;12205;50.600;4.608;2023-06-22T06:51:36;9.00;;;3.60;;
23990;SDS011;12205;50.600;4.608;2023-06-22T06:54:04;12.32;;;3.83;;
23990;SDS011;12205;50.600;4.608;2023-06-22T06:56:31;15.32;;;4.50;;
23990;SDS011;12205;50.600;4.608;2023-06-22T06:58:59;9.35;;;3.88;;
23990;SDS011;12205;50.600;4.608;2023-06-22T07:01:26;15.30;;;4.75;;
23990;SDS011;12205;50.600;4.608;2023-06-22T07:03:58;15.40;;;4.85;;
23990;SDS011;12205;50.600;4.608;2023-06-22T07:06:26;10.65;;;3.92;;
23990;SDS011;12205;50.600;4.608;2023-06-22T07:08:57;12.55;;;4.18;;
23990;SDS011;12205;50.600;4.608;2023-06-22T07:11:25;9.80;;;4.10;;
23990;SDS011;12205;50.600;4.608;2023-06-22T07:13:53;11.88;;;4.13;;
23990;SDS011;12205;50.600;4.608;2023-06-22T07:16:20;13.88;;;4.60;;
23990;SDS011;12205;50.600;4.608;2023-06-22T07:18:48;10.68;;;4.07;;
23990;SDS011;12205;50.600;4.608;2023-06-22T07:21:15;11.95;;;4.50;;
23990;SDS011;12205;50.600;4.608;2023-06-22T07:23:42;15.77;;;5.20;;
23990;SDS011;12205;50.600;4.608;2023-06-22T07:26:09;13.13;;;4.53;;
23990;SDS011;12205;50.600;4.608;2023-06-22T07:28:39;11.82;;;4.50;;
23990;SDS011;12205;50.600;4.608;2023-06-22T07:31:06;10.32;;;3.90;;
23990;SDS011;12205;50.600;4.608;2023-06-22T07:33:33;17.42;;;4.97;;
23990;SDS011;12205;50.600;4.608;2023-06-22T07:36:00;8.23;;;3.65;;
23990;SDS011;12205;50.600;4.608;2023-06-22T07:38:28;10.98;;;3.92;;
23990;SDS011;12205;50.600;4.608;2023-06-22T07:40:55;11.70;;;3.83;;
23990;SDS011;12205;50.600;4.608;2023-06-22T07:43:23;8.77;;;3.55;;
23990;SDS011;12205;50.600;4.608;2023-06-22T07:45:51;11.57;;;3.53;;
23990;SDS011;12205;50.600;4.608;2023-06-22T07:48:19;11.35;;;3.85;;
23990;SDS011;12205;50.600;4.608;2023-06-22T07:50:47;10.82;;;3.83;;
23990;SDS011;12205;50.600;4.608;2023-06-22T07:53:15;10.25;;;3.72;;
23990;SDS011;12205;50.600;4.608;2023-06-22T07:55:42;9.65;;;3.28;;
23990;SDS011;12205;50.600;4.608;2023-06-22T07:58:09;15.38;;;3.70;;
23990;SDS011;12205;50.600;4.608;2023-06-22T08:00:36;9.93;;;3.22;;
23990;SDS011;12205;50.600;4.608;2023-06-22T08:03:05;15.85;;;3.75;;
23990;SDS011;12205;50.600;4.608;2023-06-22T08:05:35;12.50;;;3.88;;
23990;SDS011;12205;50.600;4.608;2023-06-22T08:08:02;7.68;;;2.85;;
23990;SDS011;12205;50.600;4.608;2023-06-22T08:10:29;10.27;;;3.10;;
23990;SDS011;12205;50.600;4.608;2023-06-22T08:12:57;11.43;;;2.83;;
23990;SDS011;12205;50.600;4.608;2023-06-22T08:15:25;8.43;;;2.90;;
23990;SDS011;12205;50.600;4.608;2023-06-22T08:17:53;7.85;;;2.83;;
23990;SDS011;12205;50.600;4.608;2023-06-22T08:20:21;9.48;;;2.70;;
23990;SDS011;12205;50.600;4.608;2023-06-22T08:22:49;8.50;;;3.15;;
23990;SDS011;12205;50.600;4.608;2023-06-22T08:25:16;11.52;;;3.25;;
23990;SDS011;12205;50.600;4.608;2023-06-22T08:27:44;9.73;;;3.13;;
23990;SDS011;12205;50.600;4.608;2023-06-22T08:30:13;11.48;;;3.40;;
23990;SDS011;12205;50.600;4.608;2023-06-22T08:32:41;10.68;;;3.08;;
23990;SDS011;12205;50.600;4.608;2023-06-22T08:35:08;8.70;;;3.08;;
23990;SDS011;12205;50.600;4.608;2023-06-22T08:37:37;9.65;;;3.17;;
23990;SDS011;12205;50.600;4.608;2023-06-22T08:40:05;9.57;;;3.47;;
23990;SDS011;12205;50.600;4.608;2023-06-22T08:42:35;14.85;;;3.42;;
23990;SDS011;12205;50.600;4.608;2023-06-22T08:45:03;9.30;;;3.15;;
23990;SDS011;12205;50.600;4.608;2023-06-22T08:47:31;10.60;;;3.17;;
23990;SDS011;12205;50.600;4.608;2023-06-22T08:49:58;11.05;;;3.88;;
23990;SDS011;12205;50.600;4.608;2023-06-22T08:52:27;11.68;;;4.00;;
23990;SDS011;12205;50.600;4.608;2023-06-22T08:54:56;13.63;;;3.75;;
23990;SDS011;12205;50.600;4.608;2023-06-22T08:57:24;12.27;;;3.85;;
23990;SDS011;12205;50.600;4.608;2023-06-22T08:59:51;15.38;;;4.18;;
23990;SDS011;12205;50.600;4.608;2023-06-22T09:02:18;10.93;;;3.88;;
23990;SDS011;12205;50.600;4.608;2023-06-22T09:04:45;12.13;;;3.90;;
23990;SDS011;12205;50.600;4.608;2023-06-22T09:07:13;15.85;;;4.30;;
23990;SDS011;12205;50.600;4.608;2023-06-22T09:09:47;17.73;;;4.22;;
23990;SDS011;12205;50.600;4.608;2023-06-22T09:12:15;14.23;;;4.40;;
23990;SDS011;12205;50.600;4.608;2023-06-22T09:14:45;16.23;;;4.47;;
23990;SDS011;12205;50.600;4.608;2023-06-22T09:17:12;12.30;;;3.92;;
23990;SDS011;12205;50.600;4.608;2023-06-22T09:19:40;9.57;;;3.90;;
23990;SDS011;12205;50.600;4.608;2023-06-22T09:22:07;16.98;;;4.47;;
23990;SDS011;12205;50.600;4.608;2023-06-22T09:24:34;22.30;;;5.18;;
23990;SDS011;12205;50.600;4.608;2023-06-22T09:27:02;9.85;;;3.15;;
23990;SDS011;12205;50.600;4.608;2023-06-22T09:29:31;18.83;;;4.45;;
23990;SDS011;12205;50.600;4.608;2023-06-22T09:31:58;13.68;;;5.05;;
23990;SDS011;12205;50.600;4.608;2023-06-22T09:34:26;17.35;;;5.65;;
23990;SDS011;12205;50.600;4.608;2023-06-22T09:36:53;10.63;;;3.60;;
23990;SDS011;12205;50.600;4.608;2023-06-22T09:39:20;16.33;;;5.00;;
23990;SDS011;12205;50.600;4.608;2023-06-22T09:41:47;16.75;;;6.18;;
23990;SDS011;12205;50.600;4.608;2023-06-22T09:44:14;20.77;;;5.57;;
23990;SDS011;12205;50.600;4.608;2023-06-22T09:46:42;17.85;;;4.95;;
23990;SDS011;12205;50.600;4.608;2023-06-22T09:49:10;15.40;;;5.53;;
23990;SDS011;12205;50.600;4.608;2023-06-22T09:51:37;18.42;;;5.45;;
23990;SDS011;12205;50.600;4.608;2023-06-22T09:54:04;20.23;;;6.22;;
23990;SDS011;12205;50.600;4.608;2023-06-22T09:56:31;16.75;;;5.20;;
23990;SDS011;12205;50.600;4.608;2023-06-22T09:58:58;23.25;;;7.15;;
23990;SDS011;12205;50.600;4.608;2023-06-22T10:01:25;21.38;;;7.72;;
23990;SDS011;12205;50.600;4.608;2023-06-22T10:03:55;24.23;;;7.65;;
23990;SDS011;12205;50.600;4.608;2023-06-22T10:06:22;21.05;;;7.03;;
23990;SDS011;12205;50.600;4.608;2023-06-22T10:08:50;16.33;;;6.75;;
23990;SDS011;12205;50.600;4.608;2023-06-22T10:11:17;19.30;;;7.03;;
23990;SDS011;12205;50.600;4.608;2023-06-22T10:13:45;21.52;;;7.50;;
23990;SDS011;12205;50.600;4.608;2023-06-22T10:16:12;23.73;;;6.80;;
23990;SDS011;12205;50.600;4.608;2023-06-22T10:18:39;24.70;;;7.05;;
23990;SDS011;12205;50.600;4.608;2023-06-22T10:21:07;16.02;;;6.30;;
23990;SDS011;12205;50.600;4.608;2023-06-22T10:23:34;17.63;;;7.05;;
23990;SDS011;12205;50.600;4.608;2023-06-22T10:26:01;15.15;;;6.70;;
23990;SDS011;12205;50.600;4.608;2023-06-22T10:28:28;18.27;;;6.95;;
23990;SDS011;12205;50.600;4.608;2023-06-22T10:30:55;21.15;;;8.15;;
23990;SDS011;12205;50.600;4.608;2023-06-22T10:33:22;17.73;;;7.47;;
23990;SDS011;12205;50.600;4.608;2023-06-22T10:35:49;16.17;;;6.93;;
23990;SDS011;12205;50.600;4.608;2023-06-22T10:38:18;15.18;;;6.40;;
23990;SDS011;12205;50.600;4.608;2023-06-22T10:40:45;18.85;;;6.65;;
23990;SDS011;12205;50.600;4.608;2023-06-22T10:43:12;12.70;;;4.85;;
23990;SDS011;12205;50.600;4.608;2023-06-22T10:45:39;12.27;;;4.72;;
23990;SDS011;12205;50.600;4.608;2023-06-22T10:48:07;12.60;;;4.85;;
23990;SDS011;12205;50.600;4.608;2023-06-22T10:50:34;12.15;;;5.15;;
23990;SDS011;12205;50.600;4.608;2023-06-22T10:53:01;13.85;;;5.78;;
23990;SDS011;12205;50.600;4.608;2023-06-22T10:55:29;13.27;;;5.15;;
23990;SDS011;12205;50.600;4.608;2023-06-22T10:57:56;12.63;;;4.82;;
23990;SDS011;12205;50.600;4.608;2023-06-22T11:00:23;15.00;;;5.38;;
23990;SDS011;12205;50.600;4.608;2023-06-22T11:02:50;12.27;;;5.07;;
23990;SDS011;12205;50.600;4.608;2023-06-22T11:05:17;13.85;;;5.20;;
23990;SDS011;12205;50.600;4.608;2023-06-22T11:07:44;16.08;;;6.00;;
23990;SDS011;12205;50.600;4.608;2023-06-22T11:10:13;27.77;;;7.60;;
23990;SDS011;12205;50.600;4.608;2023-06-22T11:12:42;18.27;;;6.75;;
23990;SDS011;12205;50.600;4.608;2023-06-22T11:15:09;16.88;;;6.40;;
23990;SDS011;12205;50.600;4.608;2023-06-22T11:17:36;16.02;;;6.10;;
23990;SDS011;12205;50.600;4.608;2023-06-22T11:20:04;13.15;;;5.78;;
23990;SDS011;12205;50.600;4.608;2023-06-22T11:22:36;21.33;;;6.95;;
23990;SDS011;12205;50.600;4.608;2023-06-22T11:25:04;17.67;;;6.85;;
23990;SDS011;12205;50.600;4.608;2023-06-22T11:27:33;19.17;;;7.22;;
23990;SDS011;12205;50.600;4.608;2023-06-22T11:30:01;17.73;;;7.20;;
23990;SDS011;12205;50.600;4.608;2023-06-22T11:32:29;15.27;;;7.18;;
23990;SDS011;12205;50.600;4.608;2023-06-22T11:34:56;19.58;;;7.97;;
23990;SDS011;12205;50.600;4.608;2023-06-22T11:37:24;16.27;;;7.45;;
23990;SDS011;12205;50.600;4.608;2023-06-22T11:39:51;23.33;;;7.57;;
23990;SDS011;12205;50.600;4.608;2023-06-22T11:42:20;17.05;;;8.13;;
23990;SDS011;12205;50.600;4.608;2023-06-22T11:44:48;17.60;;;7.70;;
23990;SDS011;12205;50.600;4.608;2023-06-22T11:47:17;22.90;;;9.20;;
23990;SDS011;12205;50.600;4.608;2023-06-22T11:49:44;19.38;;;8.25;;
23990;SDS011;12205;50.600;4.608;2023-06-22T11:52:11;18.85;;;8.57;;
23990;SDS011;12205;50.600;4.608;2023-06-22T11:54:38;17.75;;;8.68;;
23990;SDS011;12205;50.600;4.608;2023-06-22T11:57:05;20.48;;;9.60;;
23990;SDS011;12205;50.600;4.608;2023-06-22T11:59:33;18.52;;;8.98;;
23990;SDS011;12205;50.600;4.608;2023-06-22T12:02:00;17.98;;;8.90;;
23990;SDS011;12205;50.600;4.608;2023-06-22T12:04:29;18.20;;;8.98;;
23990;SDS011;12205;50.600;4.608;2023-06-22T12:06:56;21.73;;;9.68;;
23990;SDS011;12205;50.600;4.608;2023-06-22T12:09:23;16.15;;;8.00;;
23990;SDS011;12205;50.600;4.608;2023-06-22T12:11:50;18.20;;;8.13;;
23990;SDS011;12205;50.600;4.608;2023-06-22T12:14:17;21.38;;;8.95;;
23990;SDS011;12205;50.600;4.608;2023-06-22T12:16:44;18.38;;;7.78;;
23990;SDS011;12205;50.600;4.608;2023-06-22T12:19:12;16.10;;;7.95;;
23990;SDS011;12205;50.600;4.608;2023-06-22T12:21:40;16.77;;;8.55;;
23990;SDS011;12205;50.600;4.608;2023-06-22T12:24:10;19.13;;;8.52;;
23990;SDS011;12205;50.600;4.608;2023-06-22T12:26:37;18.15;;;8.50;;
23990;SDS011;12205;50.600;4.608;2023-06-22T12:29:04;17.33;;;8.30;;
23990;SDS011;12205;50.600;4.608;2023-06-22T12:31:32;23.50;;;9.35;;
23990;SDS011;12205;50.600;4.608;2023-06-22T12:33:59;19.10;;;8.60;;
23990;SDS011;12205;50.600;4.608;2023-06-22T12:36:26;18.25;;;8.40;;
23990;SDS011;12205;50.600;4.608;2023-06-22T12:38:54;18.27;;;8.75;;
23990;SDS011;12205;50.600;4.608;2023-06-22T12:41:21;18.55;;;9.38;;
23990;SDS011;12205;50.600;4.608;2023-06-22T12:43:49;19.42;;;9.02;;
23990;SDS011;12205;50.600;4.608;2023-06-22T12:46:16;22.63;;;9.30;;
23990;SDS011;12205;50.600;4.608;2023-06-22T12:48:43;21.48;;;9.85;;
23990;SDS011;12205;50.600;4.608;2023-06-22T12:51:10;21.48;;;10.25;;
23990;SDS011;12205;50.600;4.608;2023-06-22T12:53:38;21.70;;;10.15;;
23990;SDS011;12205;50.600;4.608;2023-06-22T12:56:06;24.50;;;10.10;;
23990;SDS011;12205;50.600;4.608;2023-06-22T12:58:33;19.80;;;10.38;;
23990;SDS011;12205;50.600;4.608;2023-06-22T13:01:00;21.45;;;10.02;;
23990;SDS011;12205;50.600;4.608;2023-06-22T13:03:28;21.48;;;10.60;;
23990;SDS011;12205;50.600;4.608;2023-06-22T13:05:55;22.60;;;10.27;;
23990;SDS011;12205;50.600;4.608;2023-06-22T13:08:22;20.60;;;10.50;;
23990;SDS011;12205;50.600;4.608;2023-06-22T13:10:49;26.02;;;11.85;;
23990;SDS011;12205;50.600;4.608;2023-06-22T13:13:17;26.33;;;11.02;;
23990;SDS011;12205;50.600;4.608;2023-06-22T13:15:45;25.50;;;11.52;;
23990;SDS011;12205;50.600;4.608;2023-06-22T13:18:12;23.75;;;10.13;;
23990;SDS011;12205;50.600;4.608;2023-06-22T13:20:39;29.17;;;11.57;;
23990;SDS011;12205;50.600;4.608;2023-06-22T13:23:06;24.40;;;10.70;;
23990;SDS011;12205;50.600;4.608;2023-06-22T13:25:33;23.02;;;10.68;;
23990;SDS011;12205;50.600;4.608;2023-06-22T13:28:00;22.00;;;10.75;;
23990;SDS011;12205;50.600;4.608;2023-06-22T13:30:28;20.67;;;10.27;;
23990;SDS011;12205;50.600;4.608;2023-06-22T13:32:57;21.15;;;10.77;;
23990;SDS011;12205;50.600;4.608;2023-06-22T13:35:24;25.90;;;9.90;;
23990;SDS011;12205;50.600;4.608;2023-06-22T13:37:51;20.10;;;10.20;;
23990;SDS011;12205;50.600;4.608;2023-06-22T13:40:18;18.33;;;9.23;;
23990;SDS011;12205;50.600;4.608;2023-06-22T13:42:45;19.98;;;9.23;;
23990;SDS011;12205;50.600;4.608;2023-06-22T13:45:12;20.25;;;9.68;;
23990;SDS011;12205;50.600;4.608;2023-06-22T13:47:43;21.90;;;8.48;;
23990;SDS011;12205;50.600;4.608;2023-06-22T13:50:10;20.45;;;8.73;;
23990;SDS011;12205;50.600;4.608;2023-06-22T13:52:38;19.63;;;8.25;;
23990;SDS011;12205;50.600;4.608;2023-06-22T13:55:05;21.40;;;9.10;;
23990;SDS011;12205;50.600;4.608;2023-06-22T13:57:33;16.30;;;8.38;;
23990;SDS011;12205;50.600;4.608;2023-06-22T14:00:00;16.90;;;8.30;;
23990;SDS011;12205;50.600;4.608;2023-06-22T14:02:36;18.85;;;8.07;;
23990;SDS011;12205;50.600;4.608;2023-06-22T14:05:06;16.33;;;8.50;;
23990;SDS011;12205;50.600;4.608;2023-06-22T14:07:34;19.60;;;8.60;;
23990;SDS011;12205;50.600;4.608;2023-06-22T14:10:02;19.95;;;8.63;;
23990;SDS011;12205;50.600;4.608;2023-06-22T14:12:31;17.13;;;8.55;;
23990;SDS011;12205;50.600;4.608;2023-06-22T14:14:58;17.20;;;9.02;;
23990;SDS011;12205;50.600;4.608;2023-06-22T14:17:25;16.10;;;8.50;;
23990;SDS011;12205;50.600;4.608;2023-06-22T14:19:53;20.10;;;9.73;;
23990;SDS011;12205;50.600;4.608;2023-06-22T14:22:21;21.67;;;9.35;;
23990;SDS011;12205;50.600;4.608;2023-06-22T14:24:49;19.20;;;9.18;;
23990;SDS011;12205;50.600;4.608;2023-06-22T14:27:16;17.42;;;8.80;;
23990;SDS011;12205;50.600;4.608;2023-06-22T14:29:43;14.55;;;8.30;;
23990;SDS011;12205;50.600;4.608;2023-06-22T14:32:10;19.02;;;9.27;;
23990;SDS011;12205;50.600;4.608;2023-06-22T14:34:37;17.48;;;8.10;;
23990;SDS011;12205;50.600;4.608;2023-06-22T14:37:05;18.50;;;8.52;;
23990;SDS011;12205;50.600;4.608;2023-06-22T14:39:36;17.27;;;9.05;;
23990;SDS011;12205;50.600;4.608;2023-06-22T14:42:03;16.23;;;7.63;;
23990;SDS011;12205;50.600;4.608;2023-06-22T14:44:30;15.02;;;7.47;;
23990;SDS011;12205;50.600;4.608;2023-06-22T14:46:58;13.68;;;7.30;;
23990;SDS011;12205;50.600;4.608;2023-06-22T14:49:26;15.60;;;7.70;;